Shellbrook, Canada
Current Conditions -  °F | °C
As of 9:36 AM on Sunday 23 Nov 2014 (Local Time) from CYPA Reporting Station
Overcast Overcast  
Wind Chill: -8°   Ceiling: 22000
Heat Index:   Visibility: 15mi
Dew Point: -2°   Wind: 6mph
Humidity: 78%   Direction: 30°NNE
Pressure: 29.85"   Gusts: NA
Location:  53.22°N, 106.4°W
Report Text: CYPA 231536Z 03005KT 15SM FEW120 SCT160 OVC220 M16/M19 A2985 RMK AC1AC2CI5 SLP145
Loading
Personal Weather Stations






























Interactive Weather Map New forecast layout! Learn more

10-Day Weather Forecast

Advertisements
Track Severe Weather on mobile